createdAt,value
2023-03-11T00:00:53.280Z,100844.47
2023-03-11T00:03:23.274Z,100844.34
2023-03-11T00:05:50.794Z,100840.78
2023-03-11T00:08:21.169Z,100843.34
2023-03-11T00:10:51.592Z,100823.66
2023-03-11T00:13:18.308Z,100823.03
2023-03-11T00:15:49.001Z,100811.69
2023-03-11T00:18:17.188Z,100814.91
2023-03-11T00:20:46.019Z,100821.28
2023-03-11T00:23:14.482Z,100823.72
2023-03-11T00:25:44.053Z,100816.34
2023-03-11T00:28:11.688Z,100807.28
2023-03-11T00:30:40.371Z,100810.97
2023-03-11T00:33:08.127Z,100818.78
2023-03-11T00:35:35.663Z,100809.44
2023-03-11T00:38:05.445Z,100806.47
2023-03-11T00:40:34.213Z,100809.63
2023-03-11T00:43:00.961Z,100807.81
2023-03-11T00:45:28.768Z,100811.22
2023-03-11T00:47:55.863Z,100817.56
2023-03-11T00:50:26.138Z,100819.44
2023-03-11T00:52:53.460Z,100819.56
2023-03-11T00:55:23.614Z,100813.31
2023-03-11T00:57:55.343Z,100803.53
2023-03-11T01:00:23.682Z,100805.50
2023-03-11T01:02:51.005Z,100808.94
2023-03-11T01:05:24.276Z,100804.50
2023-03-11T01:07:51.525Z,100804.38
2023-03-11T01:10:18.330Z,100798.16
2023-03-11T01:12:45.214Z,100803.53
2023-03-11T01:15:19.024Z,100802.53
2023-03-11T01:17:45.904Z,100800.84
2023-03-11T01:20:13.326Z,100792.75
2023-03-11T01:22:40.042Z,100795.59
2023-03-11T01:25:07.417Z,100795.59
2023-03-11T01:27:34.244Z,100796.44
2023-03-11T01:30:00.957Z,100795.44
2023-03-11T01:32:27.885Z,100780.25
2023-03-11T01:34:54.637Z,100781.97
2023-03-11T01:37:21.349Z,100768.50
2023-03-11T01:39:48.284Z,100760.66
2023-03-11T01:42:15.285Z,100772.19
2023-03-11T01:44:43.442Z,100769.47
2023-03-11T01:47:10.178Z,100765.06
2023-03-11T01:49:42.119Z,100767.75
2023-03-11T01:52:10.093Z,100758.84
2023-03-11T01:54:41.576Z,100746.22
2023-03-11T01:57:13.373Z,100743.78
2023-03-11T01:59:45.242Z,100749.31
2023-03-11T02:02:19.206Z,100740.91
2023-03-11T02:04:46.625Z,100747.88
2023-03-11T02:07:14.738Z,100750.44
2023-03-11T02:09:42.053Z,100745.78
2023-03-11T02:12:11.568Z,100751.88
2023-03-11T02:14:43.853Z,100750.03
2023-03-11T02:17:10.923Z,100752.56
2023-03-11T02:20:06.460Z,100761.81
2023-03-11T02:22:34.718Z,100765.75
2023-03-11T02:25:28.998Z,100769.56
2023-03-11T02:27:58.161Z,100769.44
2023-03-11T02:30:27.546Z,100779.22
2023-03-11T02:32:56.504Z,100787.31
2023-03-11T02:35:23.350Z,100784.47
2023-03-11T02:37:52.493Z,100776.78
2023-03-11T02:40:26.153Z,100772.41
2023-03-11T02:43:05.649Z,100772.25
2023-03-11T02:45:32.814Z,100758.53
2023-03-11T02:48:00.661Z,100752.28
2023-03-11T02:50:29.170Z,100753.13
2023-03-11T02:52:56.170Z,100752.16
2023-03-11T02:55:23.252Z,100751.88
2023-03-11T02:57:49.915Z,100750.75
2023-03-11T03:00:18.064Z,100747.78
2023-03-11T03:03:44.507Z,100747.78
2023-03-11T03:07:11.084Z,100744.09
2023-03-11T03:09:38.078Z,100748.63
2023-03-11T03:12:05.343Z,100753.03
2023-03-11T03:14:32.690Z,100752.06
2023-03-11T03:16:59.493Z,100753.03
2023-03-11T03:19:26.327Z,100755.88
2023-03-11T03:21:53.223Z,100756.72
2023-03-11T03:24:19.872Z,100759.41
2023-03-11T03:26:46.594Z,100757.84
2023-03-11T03:29:13.396Z,100761.25
2023-03-11T03:31:40.090Z,100757.72
2023-03-11T03:34:06.864Z,100757.84
2023-03-11T03:36:33.706Z,100756.00
2023-03-11T03:39:02.334Z,100753.31
2023-03-11T03:41:29.125Z,100745.66
2023-03-11T03:43:55.993Z,100747.47
2023-03-11T03:46:23.334Z,100746.63
2023-03-11T03:48:50.584Z,100742.06
2023-03-11T03:51:18.104Z,100743.09
2023-03-11T03:53:46.631Z,100732.03
2023-03-11T03:56:16.335Z,100731.75
2023-03-11T03:58:43.301Z,100734.31
2023-03-11T04:01:11.721Z,100738.44
2023-03-11T04:03:39.612Z,100742.56
2023-03-11T04:06:14.521Z,100741.19
2023-03-11T04:08:41.294Z,100720.59
2023-03-11T04:11:08.109Z,100739.59
2023-03-11T04:13:34.899Z,100738.75
2023-03-11T04:16:04.956Z,100740.34
2023-03-11T04:18:31.735Z,100734.81
2023-03-11T04:20:58.566Z,100731.53
2023-03-11T04:23:25.251Z,100724.75
2023-03-11T04:25:51.935Z,100724.38
2023-03-11T04:28:18.859Z,100722.38
2023-03-11T04:30:45.647Z,100715.84
2023-03-11T04:33:12.352Z,100721.09
2023-03-11T04:35:39.858Z,100730.91
2023-03-11T04:38:06.592Z,100735.69
2023-03-11T04:40:33.494Z,100741.97
2023-03-11T04:43:00.395Z,100755.44
2023-03-11T04:45:27.072Z,100763.53
2023-03-11T04:47:53.888Z,100762.53
2023-03-11T04:50:22.496Z,100759.00
2023-03-11T04:52:49.231Z,100759.84
2023-03-11T04:55:16.409Z,100757.13
2023-03-11T04:57:44.007Z,100776.00
2023-03-11T05:00:13.341Z,100772.47
2023-03-11T05:02:40.678Z,100768.19
2023-03-11T05:05:09.842Z,100755.97
2023-03-11T05:07:37.205Z,100766.31
2023-03-11T05:10:05.477Z,100768.59
2023-03-11T05:12:32.887Z,100765.88
2023-03-11T05:14:59.627Z,100754.06
2023-03-11T05:17:26.269Z,100747.13
2023-03-11T05:19:56.547Z,100748.63
2023-03-11T05:22:23.735Z,100742.69
2023-03-11T05:24:50.646Z,100739.97
2023-03-11T05:27:21.441Z,100730.78
2023-03-11T05:29:48.184Z,100728.22
2023-03-11T05:32:14.968Z,100731.75
2023-03-11T05:34:42.336Z,100726.97
2023-03-11T05:37:09.315Z,100739.03
2023-03-11T05:39:37.785Z,100741.44
2023-03-11T05:42:08.248Z,100741.19
2023-03-11T05:44:35.267Z,100742.59
2023-03-11T05:47:02.013Z,100733.53
2023-03-11T05:49:28.882Z,100733.78
2023-03-11T05:51:58.397Z,100729.28
2023-03-11T05:54:25.500Z,100723.00
2023-03-11T05:56:52.435Z,100725.00
2023-03-11T05:59:19.481Z,100722.59
2023-03-11T06:01:46.173Z,100722.59
2023-03-11T06:04:13.343Z,100714.78
2023-03-11T06:06:43.816Z,100717.59
2023-03-11T06:09:13.478Z,100718.47
2023-03-11T06:11:40.519Z,100707.97
2023-03-11T06:14:07.515Z,100702.28
2023-03-11T06:16:34.359Z,100701.41
2023-03-11T06:19:01.231Z,100705.97
2023-03-11T06:21:28.081Z,100695.03
2023-03-11T06:23:55.253Z,100688.81
2023-03-11T06:26:23.413Z,100683.84
2023-03-11T06:28:51.846Z,100684.53
2023-03-11T06:31:26.016Z,100690.34
2023-03-11T06:33:56.022Z,100687.81
2023-03-11T06:36:23.774Z,100687.91
2023-03-11T06:38:52.867Z,100678.16
2023-03-11T06:41:19.662Z,100683.25
2023-03-11T06:43:46.487Z,100685.66
2023-03-11T06:46:22.481Z,100690.34
2023-03-11T06:48:52.668Z,100685.94
2023-03-11T06:51:19.777Z,100686.66
2023-03-11T06:53:50.536Z,100691.78
2023-03-11T06:56:17.369Z,100679.28
2023-03-11T06:58:44.335Z,100670.22
2023-03-11T07:01:19.127Z,100669.34
2023-03-11T07:03:49.897Z,100664.56
2023-03-11T07:06:19.700Z,100661.88
2023-03-11T07:08:48.349Z,100654.63
2023-03-11T07:11:26.709Z,100646.97
2023-03-11T07:13:54.980Z,100649.53
2023-03-11T07:16:30.041Z,100653.50
2023-03-11T07:19:00.960Z,100657.63
2023-03-11T07:21:28.274Z,100648.41
2023-03-11T07:23:57.137Z,100652.38
2023-03-11T07:26:24.961Z,100660.91
2023-03-11T07:28:52.885Z,100671.28
2023-03-11T07:31:23.765Z,100669.16
2023-03-11T07:33:50.822Z,100667.31
2023-03-11T07:36:22.706Z,100664.19
2023-03-11T07:38:50.379Z,100655.81
2023-03-11T07:41:17.065Z,100668.03
2023-03-11T07:43:44.262Z,100661.94
2023-03-11T07:47:10.021Z,100661.78
2023-03-11T07:49:36.733Z,100659.94
2023-03-11T07:53:03.362Z,100651.16
2023-03-11T07:55:30.101Z,100654.13
2023-03-11T07:57:56.810Z,100639.53
2023-03-11T08:00:23.662Z,100650.03
2023-03-11T08:02:50.403Z,100638.50
2023-03-11T08:05:18.598Z,100637.09
2023-03-11T08:07:45.598Z,100622.91
2023-03-11T08:10:12.946Z,100625.16
2023-03-11T08:12:39.656Z,100619.19
2023-03-11T08:15:07.158Z,100632.69
2023-03-11T08:17:33.830Z,100629.13
2023-03-11T08:20:00.524Z,100621.03
2023-03-11T08:22:27.626Z,100619.19
2023-03-11T08:24:55.009Z,100626.28
2023-03-11T08:27:21.727Z,100621.91
2023-03-11T08:29:48.542Z,100623.56
2023-03-11T08:32:15.288Z,100616.06
2023-03-11T08:34:42.197Z,100622.16
2023-03-11T08:37:09.215Z,100617.03
2023-03-11T08:39:35.932Z,100622.13
2023-03-11T08:42:03.358Z,100621.88
2023-03-11T08:44:30.345Z,100623.00
2023-03-11T08:46:57.233Z,100614.91
2023-03-11T08:49:24.557Z,100611.22
2023-03-11T08:51:51.396Z,100605.25
2023-03-11T08:54:18.165Z,100605.66
2023-03-11T08:56:44.869Z,100601.84
2023-03-11T08:59:11.554Z,100602.94
2023-03-11T09:06:22.312Z,100593.41
2023-03-11T09:09:48.749Z,100595.22
2023-03-11T09:13:15.474Z,100588.81
2023-03-11T09:16:41.951Z,100573.81
2023-03-11T09:24:00.861Z,100578.47
2023-03-11T09:26:27.997Z,100582.16
2023-03-11T09:28:54.776Z,100573.75
2023-03-11T09:31:21.645Z,100577.16
2023-03-11T09:33:50.060Z,100577.41
2023-03-11T09:36:19.204Z,100559.88
2023-03-11T09:38:46.990Z,100561.28
2023-03-11T09:41:29.020Z,100557.97
2023-03-11T09:44:10.120Z,100551.94
2023-03-11T09:47:14.450Z,100552.19
2023-03-11T09:49:50.218Z,100546.09
2023-03-11T09:52:25.211Z,100544.16
2023-03-11T09:54:55.987Z,100554.28
2023-03-11T09:57:26.943Z,100548.00
2023-03-11T09:59:55.160Z,100550.34
2023-03-11T10:02:28.128Z,100538.88
2023-03-11T10:05:03.485Z,100545.06
2023-03-11T10:07:46.345Z,100541.47
2023-03-11T10:10:14.931Z,100535.91
2023-03-11T10:13:05.551Z,100534.94
2023-03-11T10:16:20.540Z,100534.25
2023-03-11T10:19:06.604Z,100530.22
2023-03-11T10:21:47.334Z,100527.50
2023-03-11T10:24:14.646Z,100535.03
2023-03-11T10:26:56.922Z,100532.72
2023-03-11T10:29:31.114Z,100531.25
2023-03-11T10:32:06.582Z,100530.38
2023-03-11T10:34:52.231Z,100524.63
2023-03-11T10:37:28.986Z,100528.22
2023-03-11T10:40:15.771Z,100528.97
2023-03-11T10:42:46.296Z,100534.13
2023-03-11T10:45:14.237Z,100545.50
2023-03-11T10:47:41.209Z,100544.09
2023-03-11T10:50:20.945Z,100548.97
2023-03-11T10:53:07.891Z,100545.28
2023-03-11T10:55:35.603Z,100553.69
2023-03-11T10:58:11.884Z,100557.69
2023-03-11T11:00:38.785Z,100554.16
2023-03-11T11:03:06.838Z,100540.66
2023-03-11T11:05:34.817Z,100531.00
2023-03-11T11:08:06.622Z,100538.38
2023-03-11T11:10:35.668Z,100525.91
2023-03-11T11:13:18.267Z,100507.44
2023-03-11T11:15:53.305Z,100519.09
2023-03-11T11:18:35.179Z,100515.44
2023-03-11T11:21:17.595Z,100528.38
2023-03-11T11:23:48.803Z,100520.59
2023-03-11T11:26:25.562Z,100526.28
2023-03-11T11:29:10.444Z,100514.75
2023-03-11T11:31:39.401Z,100529.56
2023-03-11T11:34:28.163Z,100520.75
2023-03-11T11:36:57.321Z,100518.06
2023-03-11T11:39:27.769Z,100511.78
2023-03-11T11:41:56.031Z,100509.97
2023-03-11T11:44:31.832Z,100505.56
2023-03-11T11:47:17.515Z,100514.50
2023-03-11T11:49:52.678Z,100505.00
2023-03-11T11:52:30.778Z,100501.91
2023-03-11T11:55:03.107Z,100498.34
2023-03-11T11:57:30.036Z,100496.63
2023-03-11T11:59:57.711Z,100480.06
2023-03-11T12:02:36.927Z,100481.03
2023-03-11T12:06:09.472Z,100475.66
2023-03-11T12:08:51.121Z,100475.22
2023-03-11T12:11:37.306Z,100465.16
2023-03-11T12:14:12.116Z,100466.72
2023-03-11T12:16:50.907Z,100456.47
2023-03-11T12:19:39.325Z,100448.22
2023-03-11T12:22:28.946Z,100446.38
2023-03-11T12:25:22.500Z,100440.13
2023-03-11T12:27:59.919Z,100436.28
2023-03-11T12:30:41.597Z,100431.59
2023-03-11T12:33:37.320Z,100429.06
2023-03-11T12:36:06.444Z,100418.38
2023-03-11T12:38:40.806Z,100402.88
2023-03-11T12:41:30.076Z,100398.88
2023-03-11T12:44:02.639Z,100381.91
2023-03-11T12:47:04.484Z,100374.91
2023-03-11T12:49:33.239Z,100375.44
2023-03-11T12:52:03.042Z,100364.34
2023-03-11T12:54:32.432Z,100361.56
2023-03-11T12:57:22.618Z,100362.53
2023-03-11T13:00:27.568Z,100364.06
2023-03-11T13:03:16.937Z,100358.72
2023-03-11T13:06:28.637Z,100352.63
2023-03-11T13:08:58.026Z,100348.94
2023-03-11T13:11:37.776Z,100332.59
2023-03-11T13:14:27.461Z,100323.94
2023-03-11T13:16:55.117Z,100329.00
2023-03-11T13:19:32.099Z,100325.31
2023-03-11T13:22:03.539Z,100323.78
2023-03-11T13:24:30.151Z,100316.63
2023-03-11T13:26:59.709Z,100314.06
2023-03-11T13:29:41.813Z,100311.22
2023-03-11T13:32:32.728Z,100304.28
2023-03-11T13:35:22.921Z,100303.56
2023-03-11T13:38:08.238Z,100295.78
2023-03-11T13:40:43.837Z,100286.84
2023-03-11T13:43:22.908Z,100284.97
2023-03-11T13:46:02.752Z,100287.50
2023-03-11T13:48:30.983Z,100271.03
2023-03-11T13:51:13.439Z,100264.44
2023-03-11T13:53:52.385Z,100262.84
2023-03-11T13:56:32.338Z,100255.47
2023-03-11T13:59:24.098Z,100242.72
2023-03-11T14:01:57.286Z,100239.75
2023-03-11T14:04:37.469Z,100231.00
2023-03-11T14:07:15.236Z,100245.16
2023-03-11T14:09:41.925Z,100239.25
2023-03-11T14:12:09.686Z,100240.09
2023-03-11T14:14:53.454Z,100227.59
2023-03-11T14:17:21.526Z,100225.03
2023-03-11T14:20:09.847Z,100222.19
2023-03-11T14:22:37.843Z,100227.59
2023-03-11T14:25:29.063Z,100222.38
2023-03-11T14:27:59.103Z,100207.56
2023-03-11T14:30:29.021Z,100213.16
2023-03-11T14:33:18.493Z,100209.81
2023-03-11T14:35:53.802Z,100204.94
2023-03-11T14:38:22.954Z,100194.66
2023-03-11T14:40:55.117Z,100184.88
2023-03-11T14:43:22.241Z,100184.22
2023-03-11T14:45:51.387Z,100180.88
2023-03-11T14:48:35.745Z,100180.22
2023-03-11T14:51:05.384Z,100173.81
2023-03-11T14:53:45.594Z,100182.38
2023-03-11T14:56:24.154Z,100163.78
2023-03-11T14:59:08.422Z,100166.66
2023-03-11T15:01:43.025Z,100165.25
2023-03-11T15:04:17.333Z,100149.22
2023-03-11T15:06:45.456Z,100158.19
2023-03-11T15:09:18.713Z,100150.22
2023-03-11T15:11:55.541Z,100150.06
2023-03-11T15:14:25.311Z,100138.41
2023-03-11T15:16:53.438Z,100149.06
2023-03-11T15:19:29.290Z,100138.97
2023-03-11T15:22:35.968Z,100141.66
2023-03-11T15:25:05.914Z,100139.25
2023-03-11T15:27:39.478Z,100137.41
2023-03-11T15:30:29.235Z,100132.38
2023-03-11T15:32:57.229Z,100129.16
2023-03-11T15:35:25.943Z,100122.09
2023-03-11T15:38:23.900Z,100124.28
2023-03-11T15:40:56.798Z,100121.25
2023-03-11T15:43:28.029Z,100110.59
2023-03-11T15:45:57.665Z,100110.13
2023-03-11T15:48:25.142Z,100117.72
2023-03-11T15:50:58.090Z,100115.03
2023-03-11T15:53:25.638Z,100112.66
2023-03-11T15:55:54.557Z,100113.00
2023-03-11T15:58:22.012Z,100094.72
2023-03-11T16:00:54.376Z,100097.44
2023-03-11T16:03:21.136Z,100094.38
2023-03-11T16:05:48.473Z,100087.97
2023-03-11T16:08:15.601Z,100085.78
2023-03-11T16:10:42.988Z,100079.00
2023-03-11T16:13:14.126Z,100075.44
2023-03-11T16:15:42.347Z,100081.53
2023-03-11T16:18:10.621Z,100075.44
2023-03-11T16:20:48.043Z,100072.56
2023-03-11T16:23:23.875Z,100069.38
2023-03-11T16:25:53.417Z,100068.84
2023-03-11T16:28:20.201Z,100061.59
2023-03-11T16:30:50.190Z,100057.19
2023-03-11T16:33:17.871Z,100061.91
2023-03-11T16:35:44.661Z,100060.22
2023-03-11T16:38:11.342Z,100052.94
2023-03-11T16:40:38.389Z,100054.81
2023-03-11T16:43:08.586Z,100051.78
2023-03-11T16:45:35.604Z,100055.84
2023-03-11T16:48:03.471Z,100041.31
2023-03-11T16:50:30.269Z,100045.38
2023-03-11T16:52:58.009Z,100040.97
2023-03-11T16:55:26.274Z,100040.28
2023-03-11T16:57:54.847Z,100038.56
2023-03-11T17:00:21.929Z,100036.22
2023-03-11T17:02:48.768Z,100031.16
2023-03-11T17:05:15.468Z,100033.69
2023-03-11T17:07:42.335Z,100031.16
2023-03-11T17:10:10.636Z,100043.66
2023-03-11T17:12:37.694Z,100026.75
2023-03-11T17:15:06.250Z,100037.56
2023-03-11T17:17:33.180Z,100025.91
2023-03-11T17:19:59.801Z,100035.38
2023-03-11T17:22:26.508Z,100028.25
2023-03-11T17:24:53.696Z,100026.59
2023-03-11T17:27:20.315Z,100023.03
2023-03-11T17:29:46.990Z,100019.50
2023-03-11T17:32:17.342Z,100014.91
2023-03-11T17:34:44.350Z,100010.84
2023-03-11T17:37:10.982Z,100019.66
2023-03-11T17:39:38.059Z,100011.56
2023-03-11T17:42:04.999Z,100018.78
2023-03-11T17:44:48.405Z,100022.38
2023-03-11T17:47:20.292Z,100023.03
2023-03-11T17:49:48.526Z,100010.19
2023-03-11T17:52:15.177Z,100018.31
2023-03-11T17:58:35.353Z,100013.91
2023-03-11T18:01:12.220Z,100012.91
2023-03-11T18:03:39.019Z,100017.28
2023-03-11T18:06:06.733Z,100013.38
2023-03-11T18:08:35.317Z,100011.38
2023-03-11T18:11:05.833Z,100020.31
2023-03-11T18:13:34.281Z,100024.91
2023-03-11T18:16:08.302Z,100018.63
2023-03-11T18:18:36.209Z,100022.19
2023-03-11T18:21:04.783Z,100027.59
2023-03-11T18:23:33.436Z,100021.16
2023-03-11T18:26:01.972Z,100022.03
2023-03-11T18:28:29.104Z,100015.75
2023-03-11T18:30:56.426Z,100014.91
2023-03-11T18:33:24.686Z,100032.84
2023-03-11T18:35:51.494Z,100021.00
2023-03-11T18:38:18.257Z,100030.97
2023-03-11T18:40:45.122Z,100036.38
2023-03-11T18:43:14.432Z,100036.22
2023-03-11T18:45:41.292Z,100041.63
2023-03-11T18:48:08.023Z,100039.78
2023-03-11T18:50:34.667Z,100037.91
2023-03-11T18:53:03.344Z,100047.72
2023-03-11T18:55:30.121Z,100049.41
2023-03-11T18:57:56.804Z,100049.41
2023-03-11T19:00:24.012Z,100049.91
2023-03-11T19:02:52.530Z,100056.16
2023-03-11T19:05:20.086Z,100055.63
2023-03-11T19:07:47.053Z,100057.44
2023-03-11T19:10:17.464Z,100046.38
2023-03-11T19:12:45.107Z,100044.91
2023-03-11T19:15:12.692Z,100056.88
2023-03-11T19:17:39.549Z,100055.66
2023-03-11T19:20:10.209Z,100068.16
2023-03-11T19:22:37.970Z,100066.25
2023-03-11T19:25:05.883Z,100074.72
2023-03-11T19:27:32.594Z,100081.94
2023-03-11T19:29:59.462Z,100076.31
2023-03-11T19:32:26.227Z,100082.63
2023-03-11T19:34:52.894Z,100084.13
2023-03-11T19:37:19.725Z,100094.63
2023-03-11T19:39:46.453Z,100093.59
2023-03-11T19:42:13.128Z,100096.78
2023-03-11T19:44:40.004Z,100101.19
2023-03-11T19:47:06.801Z,100105.59
2023-03-11T19:49:33.699Z,100096.22
2023-03-11T19:52:00.500Z,100099.63
2023-03-11T19:54:31.811Z,100103.66
2023-03-11T19:56:58.514Z,100111.63
2023-03-11T19:59:25.459Z,100111.44
2023-03-11T20:01:52.249Z,100112.97
2023-03-11T20:04:19.296Z,100110.25
2023-03-11T20:06:46.334Z,100110.06
2023-03-11T20:09:13.472Z,100118.19
2023-03-11T20:11:40.733Z,100114.84
2023-03-11T20:14:09.904Z,100130.06
2023-03-11T20:16:36.888Z,100131.78
2023-03-11T20:19:04.447Z,100130.56
2023-03-11T20:21:33.508Z,100128.03
2023-03-11T20:24:00.533Z,100121.94
2023-03-11T20:26:27.361Z,100127.34
2023-03-11T20:28:57.770Z,100144.50
2023-03-11T20:31:26.728Z,100132.59
2023-03-11T20:33:53.631Z,100136.84
2023-03-11T20:36:24.403Z,100148.38
2023-03-11T20:38:53.548Z,100138.34
2023-03-11T20:41:20.536Z,100158.88
2023-03-11T20:43:47.491Z,100151.38
2023-03-11T20:46:14.550Z,100156.78
2023-03-11T20:48:41.422Z,100169.16
2023-03-11T20:51:12.943Z,100157.13
2023-03-11T20:53:40.344Z,100165.94
2023-03-11T20:56:10.082Z,100159.66
2023-03-11T20:58:37.139Z,100165.06
2023-03-11T21:01:31.282Z,100163.03
2023-03-11T21:04:03.095Z,100172.03
2023-03-11T21:06:33.240Z,100186.44
2023-03-11T21:09:02.561Z,100184.56
2023-03-11T21:11:29.572Z,100171.84
2023-03-11T21:13:56.484Z,100184.41
2023-03-11T21:16:24.035Z,100185.59
2023-03-11T21:18:51.222Z,100185.59
2023-03-11T21:21:18.368Z,100178.47
2023-03-11T21:23:46.085Z,100188.31
2023-03-11T21:26:15.483Z,100189.31
2023-03-11T21:28:47.406Z,100188.50
2023-03-11T21:31:23.189Z,100201.22
2023-03-11T21:33:53.909Z,100213.75
2023-03-11T21:36:21.125Z,100207.31
2023-03-11T21:38:49.218Z,100216.16
2023-03-11T21:41:23.808Z,100223.59
2023-03-11T21:43:51.709Z,100217.34
2023-03-11T21:46:21.447Z,100222.59
2023-03-11T21:48:48.921Z,100220.53
2023-03-11T21:51:17.951Z,100223.91
2023-03-11T21:53:45.190Z,100218.50
2023-03-11T21:56:13.552Z,100225.59
2023-03-11T21:58:40.986Z,100218.13
2023-03-11T22:01:08.978Z,100225.25
2023-03-11T22:03:36.410Z,100226.28
2023-03-11T22:06:09.011Z,100223.38
2023-03-11T22:08:38.681Z,100226.09
2023-03-11T22:11:10.772Z,100241.56
2023-03-11T22:13:37.731Z,100236.31
2023-03-11T22:16:06.300Z,100233.72
2023-03-11T22:18:33.299Z,100235.44
2023-03-11T22:21:00.605Z,100239.84
2023-03-11T22:23:28.096Z,100237.13
2023-03-11T22:25:55.097Z,100239.00
2023-03-11T22:28:21.965Z,100233.41
2023-03-11T22:30:48.793Z,100232.34
2023-03-11T22:33:15.739Z,100241.38
2023-03-11T22:35:59.539Z,100238.84
2023-03-11T22:38:26.586Z,100253.06
2023-03-11T22:40:55.606Z,100242.19
2023-03-11T22:43:22.439Z,100254.94
2023-03-11T22:45:51.821Z,100262.91
2023-03-11T22:48:18.532Z,100265.63
2023-03-11T22:50:48.677Z,100261.22
2023-03-11T22:53:15.912Z,100260.56
2023-03-11T22:55:44.357Z,100268.00
2023-03-11T22:58:13.371Z,100263.97
2023-03-11T23:00:40.836Z,100265.16
2023-03-11T23:03:07.744Z,100268.41
2023-03-11T23:05:42.434Z,100275.22
2023-03-11T23:08:15.494Z,100278.97
2023-03-11T23:10:43.711Z,100271.00
2023-03-11T23:13:11.417Z,100274.25
2023-03-11T23:15:41.475Z,100273.09
2023-03-11T23:18:09.105Z,100271.22
2023-03-11T23:20:37.533Z,100262.41
2023-03-11T23:23:04.518Z,100267.34
2023-03-11T23:25:31.848Z,100266.84
2023-03-11T23:28:00.220Z,100260.91
2023-03-11T23:30:26.898Z,100266.03
2023-03-11T23:32:53.772Z,100273.31
2023-03-11T23:35:20.530Z,100268.44
2023-03-11T23:37:51.266Z,100270.63
2023-03-11T23:40:18.435Z,100274.72
2023-03-11T23:42:45.206Z,100272.38
2023-03-11T23:45:12.230Z,100278.81
2023-03-11T23:47:39.041Z,100282.03
2023-03-11T23:50:06.387Z,100272.19
2023-03-11T23:52:33.381Z,100280.84
2023-03-11T23:55:00.168Z,100279.47
2023-03-11T23:57:26.862Z,100284.53
2023-03-11T23:59:53.750Z,100278.25
